Pagina principale
METAR-TAF:

METAR-TAF

Aeroporti :

Sarzana, Italia

Luni

latitudine: 44-05N, longitudine: 009-59E, altezza: 9 m

Osservazione

Il bollettino è stato emesso 46 minuti fa, alle 08:55 UTC
Vento 3 kt da sud-est
Temperature 25°C
Umidità 57%
Pressione 1018 hPa
Visibilità 10 km o più
nessuna nube inferiore a 1500 m e nessun cumulonembo

METAR: LIQW 290855Z 14003KT CAVOK 25/16 Q1018 RMK SKC VIS MIN 9999 WIND THR18 14004KT BLU

Ora: 11:41 (09:41 UTC)


TAF: mancante

Osservazioni e previsioni meteorologiche di più di 4000 aeroporti (messaggi METAR e TAF).

Le stazioni disponibili sono rappresentate dai dischi gialli e rossi sulla carta.

Puntare il mouse per vedere il nome della stazione.

Clicca sopra per visualizzare le osservazioni e previsioni meteorologiche.

Per cambiare la mappa : fare clic sui pulsanti verdi con una croce nera per ingrandire, il pulsante verde con un trattino per diminuire, o sulla freccia verde per le mappe adiacenti.


METAR-TAF: